sensor_id;sensor_type;location;lat;lon;timestamp;pressure;altitude;pressure_sealevel;temperature;humidity
46946;BME280;32679;40.810;14.498;2023-02-18T00:01:25;101683.50;;;9.69;74.35
46946;BME280;32679;40.810;14.498;2023-02-18T00:03:56;101694.31;;;9.70;74.80
46946;BME280;32679;40.810;14.498;2023-02-18T00:06:24;101681.91;;;9.77;74.37
46946;BME280;32679;40.810;14.498;2023-02-18T00:08:51;101680.56;;;9.74;74.53
46946;BME280;32679;40.810;14.498;2023-02-18T00:11:20;101680.09;;;9.72;75.20
46946;BME280;32679;40.810;14.498;2023-02-18T00:13:54;101678.50;;;9.88;73.98
46946;BME280;32679;40.810;14.498;2023-02-18T00:16:21;101679.44;;;9.75;74.20
46946;BME280;32679;40.810;14.498;2023-02-18T00:18:47;101679.44;;;9.75;74.64
46946;BME280;32679;40.810;14.498;2023-02-18T00:21:15;101688.75;;;9.70;75.56
46946;BME280;32679;40.810;14.498;2023-02-18T00:23:41;101676.81;;;9.70;75.67
46946;BME280;32679;40.810;14.498;2023-02-18T00:26:11;101673.22;;;9.69;75.56
46946;BME280;32679;40.810;14.498;2023-02-18T00:28:37;101674.53;;;9.72;75.52
46946;BME280;32679;40.810;14.498;2023-02-18T00:33:32;101665.69;;;9.70;75.51
46946;BME280;32679;40.810;14.498;2023-02-18T00:36:03;101677.78;;;9.74;75.61
46946;BME280;32679;40.810;14.498;2023-02-18T00:38:29;101665.03;;;9.73;75.43
46946;BME280;32679;40.810;14.498;2023-02-18T00:40:58;101665.41;;;9.80;75.12
46946;BME280;32679;40.810;14.498;2023-02-18T00:43:24;101657.88;;;9.81;74.62
46946;BME280;32679;40.810;14.498;2023-02-18T00:45:50;101659.00;;;9.80;74.89
46946;BME280;32679;40.810;14.498;2023-02-18T00:48:15;101655.41;;;9.79;75.51
46946;BME280;32679;40.810;14.498;2023-02-18T00:50:44;101651.00;;;9.78;75.17
46946;BME280;32679;40.810;14.498;2023-02-18T00:53:13;101647.72;;;9.76;75.57
46946;BME280;32679;40.810;14.498;2023-02-18T00:55:41;101652.63;;;9.79;75.58
46946;BME280;32679;40.810;14.498;2023-02-18T00:58:07;101644.81;;;9.81;75.97
46946;BME280;32679;40.810;14.498;2023-02-18T01:00:33;101650.66;;;9.80;75.81
46946;BME280;32679;40.810;14.498;2023-02-18T01:02:59;101650.38;;;9.81;75.72
46946;BME280;32679;40.810;14.498;2023-02-18T01:05:24;101651.34;;;9.85;76.12
46946;BME280;32679;40.810;14.498;2023-02-18T01:07:50;101648.56;;;9.85;76.18
46946;BME280;32679;40.810;14.498;2023-02-18T01:10:18;101640.69;;;9.79;76.25
46946;BME280;32679;40.810;14.498;2023-02-18T01:12:47;101638.44;;;9.81;76.96
46946;BME280;32679;40.810;14.498;2023-02-18T01:15:16;101641.50;;;9.79;75.31
46946;BME280;32679;40.810;14.498;2023-02-18T01:17:45;101631.69;;;9.73;76.02
46946;BME280;32679;40.810;14.498;2023-02-18T01:20:11;101639.69;;;9.75;75.93
46946;BME280;32679;40.810;14.498;2023-02-18T01:22:37;101634.50;;;9.82;76.22
46946;BME280;32679;40.810;14.498;2023-02-18T01:25:06;101620.91;;;9.71;76.33
46946;BME280;32679;40.810;14.498;2023-02-18T01:27:32;101630.06;;;9.72;76.34
46946;BME280;32679;40.810;14.498;2023-02-18T01:29:57;101622.34;;;9.69;76.38
46946;BME280;32679;40.810;14.498;2023-02-18T01:32:25;101617.78;;;9.64;76.67
46946;BME280;32679;40.810;14.498;2023-02-18T01:34:54;101619.09;;;9.67;76.93
46946;BME280;32679;40.810;14.498;2023-02-18T01:37:21;101624.97;;;9.65;77.49
46946;BME280;32679;40.810;14.498;2023-02-18T01:39:50;101617.59;;;9.61;77.61
46946;BME280;32679;40.810;14.498;2023-02-18T01:42:21;101619.72;;;9.64;77.72
46946;BME280;32679;40.810;14.498;2023-02-18T01:44:50;101618.25;;;9.66;77.62
46946;BME280;32679;40.810;14.498;2023-02-18T01:47:16;101607.47;;;9.65;78.05
46946;BME280;32679;40.810;14.498;2023-02-18T01:49:44;101611.69;;;9.62;78.11
46946;BME280;32679;40.810;14.498;2023-02-18T01:52:17;101610.41;;;9.60;78.64
46946;BME280;32679;40.810;14.498;2023-02-18T01:54:51;101607.91;;;9.58;79.27
46946;BME280;32679;40.810;14.498;2023-02-18T01:57:21;101603.50;;;9.49;79.13
46946;BME280;32679;40.810;14.498;2023-02-18T01:59:51;101610.25;;;9.65;76.97
46946;BME280;32679;40.810;14.498;2023-02-18T02:02:24;101600.88;;;9.43;78.41
46946;BME280;32679;40.810;14.498;2023-02-18T02:04:51;101594.94;;;9.36;79.91
46946;BME280;32679;40.810;14.498;2023-02-18T02:07:18;101602.78;;;9.34;79.76
46946;BME280;32679;40.810;14.498;2023-02-18T02:09:46;101598.38;;;9.33;79.99
46946;BME280;32679;40.810;14.498;2023-02-18T02:26:28;101596.41;;;9.42;79.22
46946;BME280;32679;40.810;14.498;2023-02-18T02:40:08;101578.25;;;9.28;79.90
46946;BME280;32679;40.810;14.498;2023-02-18T02:50:25;101570.34;;;9.21;80.50
46946;BME280;32679;40.810;14.498;2023-02-18T02:52:58;101576.91;;;9.25;81.22
46946;BME280;32679;40.810;14.498;2023-02-18T02:55:24;101576.91;;;9.25;81.56
46946;BME280;32679;40.810;14.498;2023-02-18T02:57:53;101579.19;;;9.23;82.15
46946;BME280;32679;40.810;14.498;2023-02-18T03:05:59;101582.25;;;9.13;82.33
46946;BME280;32679;40.810;14.498;2023-02-18T03:08:42;101574.56;;;9.10;82.40
46946;BME280;32679;40.810;14.498;2023-02-18T03:11:13;101571.28;;;9.08;82.49
46946;BME280;32679;40.810;14.498;2023-02-18T03:21:54;101575.56;;;9.14;81.66
46946;BME280;32679;40.810;14.498;2023-02-18T03:24:31;101579.16;;;9.14;80.71
46946;BME280;32679;40.810;14.498;2023-02-18T03:27:05;101576.22;;;9.11;81.29
46946;BME280;32679;40.810;14.498;2023-02-18T03:29:32;101581.78;;;9.11;81.17
46946;BME280;32679;40.810;14.498;2023-02-18T03:32:02;101598.44;;;9.11;81.14
46946;BME280;32679;40.810;14.498;2023-02-18T03:34:32;101588.56;;;9.05;80.90
46946;BME280;32679;40.810;14.498;2023-02-18T03:37:02;101591.88;;;9.07;80.59
46946;BME280;32679;40.810;14.498;2023-02-18T03:39:30;101585.66;;;9.10;80.28
46946;BME280;32679;40.810;14.498;2023-02-18T03:41:57;101587.47;;;9.14;79.79
46946;BME280;32679;40.810;14.498;2023-02-18T03:44:25;101587.66;;;9.18;79.13
46946;BME280;32679;40.810;14.498;2023-02-18T03:46:53;101578.19;;;9.19;79.27
46946;BME280;32679;40.810;14.498;2023-02-18T03:49:19;101583.00;;;9.27;79.15
46946;BME280;32679;40.810;14.498;2023-02-18T03:51:44;101573.38;;;9.33;78.35
46946;BME280;32679;40.810;14.498;2023-02-18T03:54:13;101583.81;;;9.36;77.73
46946;BME280;32679;40.810;14.498;2023-02-18T03:56:39;101588.28;;;9.46;78.24
46946;BME280;32679;40.810;14.498;2023-02-18T03:59:07;101579.75;;;9.34;78.88
46946;BME280;32679;40.810;14.498;2023-02-18T04:01:32;101586.78;;;9.40;78.29
46946;BME280;32679;40.810;14.498;2023-02-18T04:04:01;101587.59;;;9.40;79.10
46946;BME280;32679;40.810;14.498;2023-02-18T04:06:27;101582.38;;;9.39;78.66
46946;BME280;32679;40.810;14.498;2023-02-18T04:08:52;101583.38;;;9.43;79.78
46946;BME280;32679;40.810;14.498;2023-02-18T04:11:18;101592.00;;;9.41;81.14
46946;BME280;32679;40.810;14.498;2023-02-18T04:13:44;101584.34;;;9.47;82.21
46946;BME280;32679;40.810;14.498;2023-02-18T04:16:09;101596.28;;;9.48;83.12
46946;BME280;32679;40.810;14.498;2023-02-18T04:18:35;101599.06;;;9.48;84.13
46946;BME280;32679;40.810;14.498;2023-02-18T04:21:00;101601.69;;;9.44;84.39
46946;BME280;32679;40.810;14.498;2023-02-18T04:23:26;101598.56;;;9.45;85.14
46946;BME280;32679;40.810;14.498;2023-02-18T04:25:51;101593.34;;;9.53;85.16
46946;BME280;32679;40.810;14.498;2023-02-18T04:28:17;101594.06;;;9.67;83.08
46946;BME280;32679;40.810;14.498;2023-02-18T04:30:43;101598.28;;;9.56;80.96
46946;BME280;32679;40.810;14.498;2023-02-18T04:33:09;101595.78;;;9.45;81.79
46946;BME280;32679;40.810;14.498;2023-02-18T04:35:35;101597.09;;;9.39;82.16
46946;BME280;32679;40.810;14.498;2023-02-18T04:38:03;101602.97;;;9.38;81.88
46946;BME280;32679;40.810;14.498;2023-02-18T04:40:32;101600.50;;;9.36;82.21
46946;BME280;32679;40.810;14.498;2023-02-18T04:42:58;101595.59;;;9.33;82.37
46946;BME280;32679;40.810;14.498;2023-02-18T04:45:25;101599.34;;;9.37;82.33
46946;BME280;32679;40.810;14.498;2023-02-18T04:47:51;101606.03;;;9.36;82.26
46946;BME280;32679;40.810;14.498;2023-02-18T04:50:18;101597.47;;;9.64;78.98
46946;BME280;32679;40.810;14.498;2023-02-18T04:52:43;101601.78;;;9.30;79.87
46946;BME280;32679;40.810;14.498;2023-02-18T04:55:09;101609.75;;;9.23;81.14
46946;BME280;32679;40.810;14.498;2023-02-18T04:57:37;101607.13;;;9.18;81.92
46946;BME280;32679;40.810;14.498;2023-02-18T05:00:07;101611.03;;;9.17;82.18
46946;BME280;32679;40.810;14.498;2023-02-18T05:02:33;101601.03;;;9.16;81.87
46946;BME280;32679;40.810;14.498;2023-02-18T05:04:59;101604.34;;;9.18;81.62
46946;BME280;32679;40.810;14.498;2023-02-18T05:07:25;101612.66;;;9.18;81.63
46946;BME280;32679;40.810;14.498;2023-02-18T05:09:51;101611.03;;;9.17;82.14
46946;BME280;32679;40.810;14.498;2023-02-18T05:12:16;101611.31;;;9.15;81.89
46946;BME280;32679;40.810;14.498;2023-02-18T05:14:42;101609.97;;;9.35;80.66
46946;BME280;32679;40.810;14.498;2023-02-18T05:17:07;101622.97;;;9.26;80.79
46946;BME280;32679;40.810;14.498;2023-02-18T05:19:33;101611.38;;;9.24;80.94
46946;BME280;32679;40.810;14.498;2023-02-18T05:21:58;101610.69;;;9.50;80.51
46946;BME280;32679;40.810;14.498;2023-02-18T05:24:24;101598.56;;;9.45;78.65
46946;BME280;32679;40.810;14.498;2023-02-18T05:26:49;101607.88;;;9.41;79.37
46946;BME280;32679;40.810;14.498;2023-02-18T05:29:15;101616.53;;;9.39;79.74
46946;BME280;32679;40.810;14.498;2023-02-18T05:31:41;101617.97;;;9.37;80.41
46946;BME280;32679;40.810;14.498;2023-02-18T05:34:12;101626.44;;;9.32;81.78
46946;BME280;32679;40.810;14.498;2023-02-18T05:36:38;101623.38;;;9.33;81.85
46946;BME280;32679;40.810;14.498;2023-02-18T05:39:03;101619.31;;;9.39;82.54
46946;BME280;32679;40.810;14.498;2023-02-18T05:41:33;101618.28;;;9.35;83.28
46946;BME280;32679;40.810;14.498;2023-02-18T05:44:04;101616.94;;;9.64;82.23
46946;BME280;32679;40.810;14.498;2023-02-18T05:46:48;101617.53;;;9.43;83.22
46946;BME280;32679;40.810;14.498;2023-02-18T05:49:16;101636.31;;;9.38;83.77
46946;BME280;32679;40.810;14.498;2023-02-18T05:51:41;101631.38;;;9.35;84.31
46946;BME280;32679;40.810;14.498;2023-02-18T05:54:07;101619.44;;;9.34;84.65
46946;BME280;32679;40.810;14.498;2023-02-18T05:56:35;101607.97;;;9.27;84.80
46946;BME280;32679;40.810;14.498;2023-02-18T05:59:00;101620.72;;;9.28;85.39
46946;BME280;32679;40.810;14.498;2023-02-18T06:01:28;101626.91;;;9.25;86.10
46946;BME280;32679;40.810;14.498;2023-02-18T06:03:53;101617.25;;;9.23;85.98
46946;BME280;32679;40.810;14.498;2023-02-18T06:06:21;101623.63;;;9.23;86.87
46946;BME280;32679;40.810;14.498;2023-02-18T06:08:47;101624.44;;;9.24;86.78
46946;BME280;32679;40.810;14.498;2023-02-18T06:11:16;101613.69;;;9.31;86.53
46946;BME280;32679;40.810;14.498;2023-02-18T06:13:41;101622.34;;;9.29;86.54
46946;BME280;32679;40.810;14.498;2023-02-18T06:16:07;101603.53;;;9.17;87.04
46946;BME280;32679;40.810;14.498;2023-02-18T06:18:32;101629.41;;;9.35;87.51
46946;BME280;32679;40.810;14.498;2023-02-18T06:20:58;101625.63;;;9.31;86.77
46946;BME280;32679;40.810;14.498;2023-02-18T06:23:23;101635.63;;;9.32;86.54
46946;BME280;32679;40.810;14.498;2023-02-18T06:25:49;101642.97;;;9.37;86.43
46946;BME280;32679;40.810;14.498;2023-02-18T06:28:15;101633.06;;;9.44;84.81
46946;BME280;32679;40.810;14.498;2023-02-18T06:30:41;101624.03;;;9.39;84.90
46946;BME280;32679;40.810;14.498;2023-02-18T06:33:06;101633.19;;;9.39;84.71
46946;BME280;32679;40.810;14.498;2023-02-18T06:35:32;101629.47;;;9.44;85.16
46946;BME280;32679;40.810;14.498;2023-02-18T06:38:01;101641.75;;;9.52;84.60
46946;BME280;32679;40.810;14.498;2023-02-18T06:40:26;101643.75;;;9.60;84.11
46946;BME280;32679;40.810;14.498;2023-02-18T06:42:52;101650.13;;;9.69;83.30
46946;BME280;32679;40.810;14.498;2023-02-18T06:45:17;101645.56;;;9.73;83.73
46946;BME280;32679;40.810;14.498;2023-02-18T06:47:43;101644.13;;;9.76;82.97
46946;BME280;32679;40.810;14.498;2023-02-18T06:50:09;101648.72;;;9.80;83.39
46946;BME280;32679;40.810;14.498;2023-02-18T06:52:37;101640.06;;;9.90;83.03
46946;BME280;32679;40.810;14.498;2023-02-18T06:55:04;101645.84;;;10.03;83.24
46946;BME280;32679;40.810;14.498;2023-02-18T06:57:32;101636.06;;;10.14;82.94
46946;BME280;32679;40.810;14.498;2023-02-18T07:00:00;101647.66;;;10.16;81.88
46946;BME280;32679;40.810;14.498;2023-02-18T07:02:26;101644.72;;;10.21;82.34
46946;BME280;32679;40.810;14.498;2023-02-18T07:04:52;101638.97;;;10.09;81.53
46946;BME280;32679;40.810;14.498;2023-02-18T07:07:20;101645.22;;;10.14;81.55
46946;BME280;32679;40.810;14.498;2023-02-18T07:09:46;101639.56;;;10.28;81.55
46946;BME280;32679;40.810;14.498;2023-02-18T07:12:13;101644.63;;;10.52;80.89
46946;BME280;32679;40.810;14.498;2023-02-18T07:14:39;101638.41;;;10.72;78.64
46946;BME280;32679;40.810;14.498;2023-02-18T07:17:04;101637.69;;;11.01;78.24
46946;BME280;32679;40.810;14.498;2023-02-18T07:19:32;101645.34;;;11.22;77.64
46946;BME280;32679;40.810;14.498;2023-02-18T07:21:57;101648.69;;;11.53;76.71
46946;BME280;32679;40.810;14.498;2023-02-18T07:24:25;101656.81;;;11.76;75.65
46946;BME280;32679;40.810;14.498;2023-02-18T07:26:51;101649.91;;;11.82;74.57
46946;BME280;32679;40.810;14.498;2023-02-18T07:29:19;101652.50;;;11.87;72.90
46946;BME280;32679;40.810;14.498;2023-02-18T07:31:45;101650.31;;;12.01;72.52
46946;BME280;32679;40.810;14.498;2023-02-18T07:34:10;101648.63;;;12.09;71.89
46946;BME280;32679;40.810;14.498;2023-02-18T07:36:36;101658.28;;;12.12;70.31
46946;BME280;32679;40.810;14.498;2023-02-18T07:39:03;101646.78;;;12.13;69.57
46946;BME280;32679;40.810;14.498;2023-02-18T07:41:31;101652.06;;;12.15;68.77
46946;BME280;32679;40.810;14.498;2023-02-18T07:43:57;101651.16;;;12.23;67.74
46946;BME280;32679;40.810;14.498;2023-02-18T07:46:23;101654.78;;;12.44;68.39
46946;BME280;32679;40.810;14.498;2023-02-18T07:48:48;101661.47;;;12.52;66.22
46946;BME280;32679;40.810;14.498;2023-02-18T07:51:16;101669.09;;;12.43;68.40
46946;BME280;32679;40.810;14.498;2023-02-18T07:53:42;101673.47;;;12.52;67.26
46946;BME280;32679;40.810;14.498;2023-02-18T07:56:07;101667.88;;;12.52;66.41
46946;BME280;32679;40.810;14.498;2023-02-18T07:58:37;101668.19;;;12.51;68.48
46946;BME280;32679;40.810;14.498;2023-02-18T08:01:08;101666.75;;;12.45;67.61
46946;BME280;32679;40.810;14.498;2023-02-18T08:03:34;101672.91;;;12.38;69.15
46946;BME280;32679;40.810;14.498;2023-02-18T08:06:01;101673.56;;;12.35;68.74
46946;BME280;32679;40.810;14.498;2023-02-18T08:08:30;101667.50;;;12.03;69.11
46946;BME280;32679;40.810;14.498;2023-02-18T08:11:00;101671.50;;;12.23;68.70
46946;BME280;32679;40.810;14.498;2023-02-18T08:13:27;101674.38;;;12.15;68.48
46946;BME280;32679;40.810;14.498;2023-02-18T08:15:57;101673.56;;;12.35;67.78
46946;BME280;32679;40.810;14.498;2023-02-18T08:18:23;101679.13;;;12.35;67.88
46946;BME280;32679;40.810;14.498;2023-02-18T08:20:50;101676.97;;;12.41;68.17
46946;BME280;32679;40.810;14.498;2023-02-18T08:23:20;101674.38;;;12.36;67.61
46946;BME280;32679;40.810;14.498;2023-02-18T08:25:49;101684.91;;;12.30;67.45
46946;BME280;32679;40.810;14.498;2023-02-18T08:28:15;101689.44;;;12.43;67.19
46946;BME280;32679;40.810;14.498;2023-02-18T08:30:59;101688.97;;;12.41;67.14
46946;BME280;32679;40.810;14.498;2023-02-18T08:33:24;101685.03;;;12.42;67.63
46946;BME280;32679;40.810;14.498;2023-02-18T08:35:53;101696.47;;;12.49;67.28
46946;BME280;32679;40.810;14.498;2023-02-18T08:38:20;101691.28;;;12.39;67.88
46946;BME280;32679;40.810;14.498;2023-02-18T08:40:46;101690.22;;;12.52;66.41
46946;BME280;32679;40.810;14.498;2023-02-18T08:43:15;101695.66;;;12.70;66.46
46946;BME280;32679;40.810;14.498;2023-02-18T08:45:41;101691.84;;;12.53;66.65
46946;BME280;32679;40.810;14.498;2023-02-18T08:48:10;101704.94;;;12.32;67.77
46946;BME280;32679;40.810;14.498;2023-02-18T08:50:37;101687.44;;;12.23;68.85
46946;BME280;32679;40.810;14.498;2023-02-18T08:53:03;101699.44;;;12.44;67.87
46946;BME280;32679;40.810;14.498;2023-02-18T08:55:29;101688.53;;;12.51;68.34
46946;BME280;32679;40.810;14.498;2023-02-18T08:57:58;101703.16;;;12.57;67.51
46946;BME280;32679;40.810;14.498;2023-02-18T09:00:25;101689.81;;;12.63;65.96
46946;BME280;32679;40.810;14.498;2023-02-18T09:02:51;101690.66;;;12.54;66.07
46946;BME280;32679;40.810;14.498;2023-02-18T09:05:16;101698.25;;;12.75;64.46
46946;BME280;32679;40.810;14.498;2023-02-18T09:07:42;101688.34;;;12.77;62.05
46946;BME280;32679;40.810;14.498;2023-02-18T09:10:09;101707.63;;;12.91;62.18
46946;BME280;32679;40.810;14.498;2023-02-18T09:12:34;101709.19;;;13.22;60.82
46946;BME280;32679;40.810;14.498;2023-02-18T09:15:03;101707.63;;;13.45;60.99
46946;BME280;32679;40.810;14.498;2023-02-18T09:17:29;101699.47;;;13.52;57.41
46946;BME280;32679;40.810;14.498;2023-02-18T09:19:57;101694.09;;;13.47;60.29
46946;BME280;32679;40.810;14.498;2023-02-18T09:22:23;101707.47;;;13.75;60.46
46946;BME280;32679;40.810;14.498;2023-02-18T09:24:48;101704.91;;;13.94;58.25
46946;BME280;32679;40.810;14.498;2023-02-18T09:27:14;101702.81;;;14.03;58.28
46946;BME280;32679;40.810;14.498;2023-02-18T09:29:40;101704.63;;;13.62;60.27
46946;BME280;32679;40.810;14.498;2023-02-18T09:32:06;101706.66;;;13.74;59.15
46946;BME280;32679;40.810;14.498;2023-02-18T09:34:33;101701.13;;;13.53;59.28
46946;BME280;32679;40.810;14.498;2023-02-18T09:36:59;101703.88;;;13.41;59.25
46946;BME280;32679;40.810;14.498;2023-02-18T09:39:25;101705.06;;;13.52;59.04
46946;BME280;32679;40.810;14.498;2023-02-18T09:41:53;101701.97;;;13.66;58.41
46946;BME280;32679;40.810;14.498;2023-02-18T09:44:26;101706.16;;;13.60;56.84
46946;BME280;32679;40.810;14.498;2023-02-18T09:47:05;101703.78;;;13.17;58.03
46946;BME280;32679;40.810;14.498;2023-02-18T09:49:34;101696.19;;;13.05;58.77
46946;BME280;32679;40.810;14.498;2023-02-18T09:52:29;101708.56;;;13.37;56.96
46946;BME280;32679;40.810;14.498;2023-02-18T09:54:56;101705.47;;;13.30;57.27
46946;BME280;32679;40.810;14.498;2023-02-18T09:59:55;101624.50;;;12.88;55.59
46946;BME280;32679;40.810;14.498;2023-02-18T10:02:22;101705.34;;;13.59;55.34
46946;BME280;32679;40.810;14.498;2023-02-18T10:04:54;101700.41;;;13.44;54.76
46946;BME280;32679;40.810;14.498;2023-02-18T10:07:27;101705.94;;;13.89;52.59
46946;BME280;32679;40.810;14.498;2023-02-18T10:09:55;101707.03;;;13.85;53.04
46946;BME280;32679;40.810;14.498;2023-02-18T10:12:24;101707.47;;;13.99;52.76
46946;BME280;32679;40.810;14.498;2023-02-18T10:14:58;101705.44;;;13.63;52.29
46946;BME280;32679;40.810;14.498;2023-02-18T10:17:27;101705.44;;;13.63;51.81
46946;BME280;32679;40.810;14.498;2023-02-18T10:19:55;101707.03;;;13.85;51.98
46946;BME280;32679;40.810;14.498;2023-02-18T10:22:23;101694.75;;;14.51;50.83
46946;BME280;32679;40.810;14.498;2023-02-18T10:24:52;101705.88;;;15.59;48.92
46946;BME280;32679;40.810;14.498;2023-02-18T10:27:30;101705.63;;;16.12;46.40
46946;BME280;32679;40.810;14.498;2023-02-18T10:32:32;101696.28;;;17.13;43.66
46946;BME280;32679;40.810;14.498;2023-02-18T10:35:16;101694.31;;;16.59;44.79
46946;BME280;32679;40.810;14.498;2023-02-18T10:37:58;101695.19;;;16.79;43.93
46946;BME280;32679;40.810;14.498;2023-02-18T10:49:13;101690.91;;;15.83;45.68
46946;BME280;32679;40.810;14.498;2023-02-18T10:51:51;101691.19;;;15.94;45.77
46946;BME280;32679;40.810;14.498;2023-02-18T10:54:23;101677.69;;;15.84;45.76
46946;BME280;32679;40.810;14.498;2023-02-18T10:56:50;101681.91;;;15.62;46.04
46946;BME280;32679;40.810;14.498;2023-02-18T10:59:24;101680.47;;;16.15;44.58
46946;BME280;32679;40.810;14.498;2023-02-18T11:01:59;101673.94;;;16.11;44.90
46946;BME280;32679;40.810;14.498;2023-02-18T11:04:40;101682.78;;;16.29;45.35
46946;BME280;32679;40.810;14.498;2023-02-18T11:07:12;101673.94;;;17.01;43.80
46946;BME280;32679;40.810;14.498;2023-02-18T11:09:45;101650.16;;;17.60;41.45
46946;BME280;32679;40.810;14.498;2023-02-18T11:14:49;101659.53;;;19.04;38.62
46946;BME280;32679;40.810;14.498;2023-02-18T11:17:30;101654.56;;;19.68;37.06
46946;BME280;32679;40.810;14.498;2023-02-18T11:20:01;101656.88;;;19.18;37.52
46946;BME280;32679;40.810;14.498;2023-02-18T11:22:32;101646.75;;;18.50;38.88
46946;BME280;32679;40.810;14.498;2023-02-18T11:25:00;101641.22;;;18.30;38.99
46946;BME280;32679;40.810;14.498;2023-02-18T11:27:45;101618.56;;;17.70;39.84
46946;BME280;32679;40.810;14.498;2023-02-18T11:32:48;101638.75;;;17.99;39.35
46946;BME280;32679;40.810;14.498;2023-02-18T11:35:26;101631.47;;;17.98;39.63
46946;BME280;32679;40.810;14.498;2023-02-18T11:37:55;101626.25;;;17.73;39.89
46946;BME280;32679;40.810;14.498;2023-02-18T11:42:51;101615.94;;;17.58;40.22
46946;BME280;32679;40.810;14.498;2023-02-18T11:45:31;101608.75;;;17.38;39.45
46946;BME280;32679;40.810;14.498;2023-02-18T11:48:07;101598.91;;;17.05;41.26
46946;BME280;32679;40.810;14.498;2023-02-18T11:50:35;101606.34;;;16.94;42.16
46946;BME280;32679;40.810;14.498;2023-02-18T11:53:25;101590.38;;;16.24;43.57
46946;BME280;32679;40.810;14.498;2023-02-18T11:55:58;101609.88;;;16.71;43.27
46946;BME280;32679;40.810;14.498;2023-02-18T11:58:25;101599.84;;;16.90;42.85
46946;BME280;32679;40.810;14.498;2023-02-18T12:00:55;101564.47;;;16.69;42.75
46946;BME280;32679;40.810;14.498;2023-02-18T12:03:43;101590.72;;;16.03;45.56
46946;BME280;32679;40.810;14.498;2023-02-18T12:06:34;101585.63;;;16.24;46.08
46946;BME280;32679;40.810;14.498;2023-02-18T12:09:05;101567.72;;;16.91;44.03
46946;BME280;32679;40.810;14.498;2023-02-18T12:11:48;101574.00;;;17.26;44.14
46946;BME280;32679;40.810;14.498;2023-02-18T12:14:20;101572.81;;;16.66;45.83
46946;BME280;32679;40.810;14.498;2023-02-18T12:17:18;101545.03;;;16.80;45.56
46946;BME280;32679;40.810;14.498;2023-02-18T12:25:38;101542.50;;;16.17;46.23
46946;BME280;32679;40.810;14.498;2023-02-18T12:34:45;101542.44;;;16.71;46.52
46946;BME280;32679;40.810;14.498;2023-02-18T12:37:39;101544.22;;;16.41;46.63
46946;BME280;32679;40.810;14.498;2023-02-18T12:40:33;101533.13;;;16.48;45.99
46946;BME280;32679;40.810;14.498;2023-02-18T12:54:12;101510.22;;;16.27;47.08
46946;BME280;32679;40.810;14.498;2023-02-18T12:57:03;101505.16;;;16.55;45.89
46946;BME280;32679;40.810;14.498;2023-02-18T13:14:36;101502.22;;;15.90;47.90
46946;BME280;32679;40.810;14.498;2023-02-18T13:17:08;101484.00;;;15.64;48.08
46946;BME280;32679;40.810;14.498;2023-02-18T13:19:47;101482.13;;;15.88;47.63
46946;BME280;32679;40.810;14.498;2023-02-18T13:22:20;101485.16;;;16.18;47.43
46946;BME280;32679;40.810;14.498;2023-02-18T13:24:48;101485.97;;;16.18;47.30
46946;BME280;32679;40.810;14.498;2023-02-18T13:38:25;101485.06;;;15.76;48.83
46946;BME280;32679;40.810;14.498;2023-02-18T13:40:56;101470.78;;;15.49;49.39
46946;BME280;32679;40.810;14.498;2023-02-18T13:46:13;101475.34;;;15.38;49.88
46946;BME280;32679;40.810;14.498;2023-02-18T13:51:14;101481.50;;;15.28;50.71
46946;BME280;32679;40.810;14.498;2023-02-18T13:53:42;101482.25;;;15.25;50.50
46946;BME280;32679;40.810;14.498;2023-02-18T13:56:29;101482.69;;;15.11;50.86
46946;BME280;32679;40.810;14.498;2023-02-18T13:59:26;101478.81;;;15.15;50.57
46946;BME280;32679;40.810;14.498;2023-02-18T14:09:58;101482.94;;;15.22;51.59
46946;BME280;32679;40.810;14.498;2023-02-18T14:15:45;101463.78;;;15.24;51.31
46946;BME280;32679;40.810;14.498;2023-02-18T14:20:28;101440.28;;;15.12;52.30
46946;BME280;32679;40.810;14.498;2023-02-18T14:22:56;101477.81;;;15.08;54.23
46946;BME280;32679;40.810;14.498;2023-02-18T14:25:33;101484.66;;;14.79;55.70
46946;BME280;32679;40.810;14.498;2023-02-18T14:28:02;101487.53;;;14.51;56.25
46946;BME280;32679;40.810;14.498;2023-02-18T14:30:37;101485.56;;;14.39;56.95
46946;BME280;32679;40.810;14.498;2023-02-18T14:33:04;101483.91;;;14.38;57.12
46946;BME280;32679;40.810;14.498;2023-02-18T14:35:37;101482.66;;;14.35;56.70
46946;BME280;32679;40.810;14.498;2023-02-18T14:40:52;101489.88;;;14.08;57.99
46946;BME280;32679;40.810;14.498;2023-02-18T14:43:40;101485.03;;;13.93;59.06
46946;BME280;32679;40.810;14.498;2023-02-18T14:46:17;101489.06;;;14.08;58.70
46946;BME280;32679;40.810;14.498;2023-02-18T14:49:15;101489.63;;;14.13;59.55
46946;BME280;32679;40.810;14.498;2023-02-18T14:51:44;101451.97;;;13.83;59.82
46946;BME280;32679;40.810;14.498;2023-02-18T14:54:15;101476.88;;;13.88;61.34
46946;BME280;32679;40.810;14.498;2023-02-18T14:59:19;101476.69;;;13.81;62.61
46946;BME280;32679;40.810;14.498;2023-02-18T15:01:46;101472.97;;;13.77;63.31
46946;BME280;32679;40.810;14.498;2023-02-18T15:04:15;101472.84;;;13.85;63.48
46946;BME280;32679;40.810;14.498;2023-02-18T15:06:41;101478.56;;;13.77;64.03
46946;BME280;32679;40.810;14.498;2023-02-18T15:09:21;101483.78;;;13.78;64.60
46946;BME280;32679;40.810;14.498;2023-02-18T15:14:28;101466.22;;;13.66;65.30
46946;BME280;32679;40.810;14.498;2023-02-18T15:16:57;101473.22;;;13.59;66.08
46946;BME280;32679;40.810;14.498;2023-02-18T15:19:26;101476.97;;;13.63;66.05
46946;BME280;32679;40.810;14.498;2023-02-18T15:21:55;101464.47;;;13.61;66.14
46946;BME280;32679;40.810;14.498;2023-02-18T15:24:30;101469.75;;;13.50;66.66